sensor_id;sensor_type;location;lat;lon;timestamp;P1;durP1;ratioP1;P2;durP2;ratioP2
11877;SDS011;5998;42.676;23.268;2022-12-10T00:01:28;18.30;;;11.53;;
11877;SDS011;5998;42.676;23.268;2022-12-10T00:03:54;19.37;;;12.10;;
11877;SDS011;5998;42.676;23.268;2022-12-10T00:06:22;23.00;;;12.70;;
11877;SDS011;5998;42.676;23.268;2022-12-10T00:08:49;22.13;;;12.83;;
11877;SDS011;5998;42.676;23.268;2022-12-10T00:11:17;16.43;;;12.03;;
11877;SDS011;5998;42.676;23.268;2022-12-10T00:13:44;23.67;;;12.13;;
11877;SDS011;5998;42.676;23.268;2022-12-10T00:16:11;24.20;;;13.37;;
11877;SDS011;5998;42.676;23.268;2022-12-10T00:18:38;24.13;;;12.73;;
11877;SDS011;5998;42.676;23.268;2022-12-10T00:21:05;24.37;;;13.00;;
11877;SDS011;5998;42.676;23.268;2022-12-10T00:23:32;20.77;;;13.07;;
11877;SDS011;5998;42.676;23.268;2022-12-10T00:26:01;19.10;;;12.30;;
11877;SDS011;5998;42.676;23.268;2022-12-10T00:28:29;23.87;;;14.33;;
11877;SDS011;5998;42.676;23.268;2022-12-10T00:31:00;21.73;;;12.17;;
11877;SDS011;5998;42.676;23.268;2022-12-10T00:33:27;20.13;;;12.40;;
11877;SDS011;5998;42.676;23.268;2022-12-10T00:35:53;24.10;;;11.93;;
11877;SDS011;5998;42.676;23.268;2022-12-10T00:38:20;20.03;;;11.77;;
11877;SDS011;5998;42.676;23.268;2022-12-10T00:40:47;19.30;;;12.47;;
11877;SDS011;5998;42.676;23.268;2022-12-10T00:43:13;27.80;;;13.37;;
11877;SDS011;5998;42.676;23.268;2022-12-10T00:45:41;21.77;;;13.03;;
11877;SDS011;5998;42.676;23.268;2022-12-10T00:48:07;18.40;;;11.00;;
11877;SDS011;5998;42.676;23.268;2022-12-10T00:50:34;21.90;;;12.03;;
11877;SDS011;5998;42.676;23.268;2022-12-10T00:53:00;23.63;;;12.77;;
11877;SDS011;5998;42.676;23.268;2022-12-10T00:55:27;25.70;;;12.60;;
11877;SDS011;5998;42.676;23.268;2022-12-10T00:57:53;21.30;;;12.33;;
11877;SDS011;5998;42.676;23.268;2022-12-10T01:00:20;17.37;;;11.73;;
11877;SDS011;5998;42.676;23.268;2022-12-10T01:02:48;18.30;;;10.87;;
11877;SDS011;5998;42.676;23.268;2022-12-10T01:05:14;16.20;;;10.83;;
11877;SDS011;5998;42.676;23.268;2022-12-10T01:07:41;23.23;;;12.60;;
11877;SDS011;5998;42.676;23.268;2022-12-10T01:10:07;19.93;;;12.30;;
11877;SDS011;5998;42.676;23.268;2022-12-10T01:12:34;17.47;;;10.63;;
11877;SDS011;5998;42.676;23.268;2022-12-10T01:15:00;23.33;;;10.40;;
11877;SDS011;5998;42.676;23.268;2022-12-10T01:17:27;21.97;;;9.90;;
11877;SDS011;5998;42.676;23.268;2022-12-10T01:19:55;19.53;;;10.87;;
11877;SDS011;5998;42.676;23.268;2022-12-10T01:22:21;19.73;;;11.80;;
11877;SDS011;5998;42.676;23.268;2022-12-10T01:24:48;17.90;;;10.57;;
11877;SDS011;5998;42.676;23.268;2022-12-10T01:27:14;19.83;;;11.37;;
11877;SDS011;5998;42.676;23.268;2022-12-10T01:29:40;17.23;;;11.43;;
11877;SDS011;5998;42.676;23.268;2022-12-10T01:32:07;17.53;;;11.37;;
11877;SDS011;5998;42.676;23.268;2022-12-10T01:34:34;20.57;;;9.57;;
11877;SDS011;5998;42.676;23.268;2022-12-10T01:37:01;16.50;;;10.17;;
11877;SDS011;5998;42.676;23.268;2022-12-10T01:39:28;15.73;;;10.47;;
11877;SDS011;5998;42.676;23.268;2022-12-10T01:41:55;15.97;;;9.87;;
11877;SDS011;5998;42.676;23.268;2022-12-10T01:47:07;17.10;;;9.70;;
11877;SDS011;5998;42.676;23.268;2022-12-10T01:49:34;20.70;;;11.10;;
11877;SDS011;5998;42.676;23.268;2022-12-10T01:52:03;16.20;;;9.13;;
11877;SDS011;5998;42.676;23.268;2022-12-10T01:54:31;15.70;;;8.50;;
11877;SDS011;5998;42.676;23.268;2022-12-10T01:56:58;16.00;;;9.50;;
11877;SDS011;5998;42.676;23.268;2022-12-10T01:59:25;19.50;;;9.33;;
11877;SDS011;5998;42.676;23.268;2022-12-10T02:01:53;21.60;;;9.50;;
11877;SDS011;5998;42.676;23.268;2022-12-10T02:04:25;16.33;;;9.37;;
11877;SDS011;5998;42.676;23.268;2022-12-10T02:06:54;16.83;;;9.37;;
11877;SDS011;5998;42.676;23.268;2022-12-10T02:09:25;15.60;;;9.07;;
11877;SDS011;5998;42.676;23.268;2022-12-10T02:11:57;26.47;;;13.57;;
11877;SDS011;5998;42.676;23.268;2022-12-10T02:14:27;24.27;;;13.37;;
11877;SDS011;5998;42.676;23.268;2022-12-10T02:16:55;14.67;;;10.63;;
11877;SDS011;5998;42.676;23.268;2022-12-10T02:19:25;15.87;;;10.17;;
11877;SDS011;5998;42.676;23.268;2022-12-10T02:21:58;13.90;;;9.33;;
11877;SDS011;5998;42.676;23.268;2022-12-10T02:24:27;15.63;;;8.73;;
11877;SDS011;5998;42.676;23.268;2022-12-10T02:26:56;15.20;;;8.37;;
11877;SDS011;5998;42.676;23.268;2022-12-10T02:29:26;15.67;;;9.17;;
11877;SDS011;5998;42.676;23.268;2022-12-10T02:31:55;15.50;;;9.17;;
11877;SDS011;5998;42.676;23.268;2022-12-10T02:34:23;12.60;;;7.63;;
11877;SDS011;5998;42.676;23.268;2022-12-10T02:36:50;16.00;;;8.20;;
11877;SDS011;5998;42.676;23.268;2022-12-10T02:39:19;14.97;;;7.43;;
11877;SDS011;5998;42.676;23.268;2022-12-10T02:41:47;11.87;;;8.40;;
11877;SDS011;5998;42.676;23.268;2022-12-10T02:44:14;17.90;;;8.53;;
11877;SDS011;5998;42.676;23.268;2022-12-10T02:46:44;20.60;;;9.13;;
11877;SDS011;5998;42.676;23.268;2022-12-10T02:49:12;15.17;;;8.53;;
11877;SDS011;5998;42.676;23.268;2022-12-10T02:51:39;15.83;;;9.33;;
11877;SDS011;5998;42.676;23.268;2022-12-10T02:54:07;15.30;;;8.50;;
11877;SDS011;5998;42.676;23.268;2022-12-10T02:56:54;16.23;;;8.30;;
11877;SDS011;5998;42.676;23.268;2022-12-10T02:59:22;11.27;;;8.23;;
11877;SDS011;5998;42.676;23.268;2022-12-10T03:01:54;14.00;;;9.00;;
11877;SDS011;5998;42.676;23.268;2022-12-10T03:04:24;13.90;;;8.73;;
11877;SDS011;5998;42.676;23.268;2022-12-10T03:06:52;15.07;;;10.30;;
11877;SDS011;5998;42.676;23.268;2022-12-10T03:09:19;16.13;;;10.00;;
11877;SDS011;5998;42.676;23.268;2022-12-10T03:11:48;14.90;;;9.07;;
11877;SDS011;5998;42.676;23.268;2022-12-10T03:14:16;14.57;;;9.80;;
11877;SDS011;5998;42.676;23.268;2022-12-10T03:16:45;13.57;;;9.53;;
11877;SDS011;5998;42.676;23.268;2022-12-10T03:19:15;16.53;;;10.17;;
11877;SDS011;5998;42.676;23.268;2022-12-10T03:21:42;16.30;;;9.00;;
11877;SDS011;5998;42.676;23.268;2022-12-10T03:24:11;19.60;;;9.77;;
11877;SDS011;5998;42.676;23.268;2022-12-10T03:26:37;15.67;;;9.80;;
11877;SDS011;5998;42.676;23.268;2022-12-10T03:29:06;19.00;;;9.60;;
11877;SDS011;5998;42.676;23.268;2022-12-10T03:31:33;16.47;;;10.20;;
11877;SDS011;5998;42.676;23.268;2022-12-10T03:34:00;15.93;;;9.37;;
11877;SDS011;5998;42.676;23.268;2022-12-10T03:36:29;18.33;;;8.80;;
11877;SDS011;5998;42.676;23.268;2022-12-10T03:38:56;18.10;;;9.70;;
11877;SDS011;5998;42.676;23.268;2022-12-10T03:41:22;17.10;;;8.60;;
11877;SDS011;5998;42.676;23.268;2022-12-10T03:43:50;10.97;;;8.27;;
11877;SDS011;5998;42.676;23.268;2022-12-10T03:46:16;10.37;;;7.37;;
11877;SDS011;5998;42.676;23.268;2022-12-10T03:48:43;12.53;;;8.07;;
11877;SDS011;5998;42.676;23.268;2022-12-10T03:51:09;15.40;;;7.50;;
11877;SDS011;5998;42.676;23.268;2022-12-10T03:53:37;14.00;;;7.50;;
11877;SDS011;5998;42.676;23.268;2022-12-10T03:59:06;16.77;;;7.90;;
11877;SDS011;5998;42.676;23.268;2022-12-10T04:01:32;13.13;;;7.40;;
11877;SDS011;5998;42.676;23.268;2022-12-10T04:03:59;14.37;;;7.80;;
11877;SDS011;5998;42.676;23.268;2022-12-10T04:06:25;14.27;;;8.93;;
11877;SDS011;5998;42.676;23.268;2022-12-10T04:08:53;12.30;;;8.40;;
11877;SDS011;5998;42.676;23.268;2022-12-10T04:11:20;11.50;;;8.27;;
11877;SDS011;5998;42.676;23.268;2022-12-10T04:13:46;16.43;;;8.07;;
11877;SDS011;5998;42.676;23.268;2022-12-10T04:16:31;9.57;;;6.70;;
11877;SDS011;5998;42.676;23.268;2022-12-10T04:18:58;13.97;;;7.33;;
11877;SDS011;5998;42.676;23.268;2022-12-10T04:21:25;15.00;;;7.20;;
11877;SDS011;5998;42.676;23.268;2022-12-10T04:24:12;15.17;;;7.53;;
11877;SDS011;5998;42.676;23.268;2022-12-10T04:26:56;13.77;;;6.87;;
11877;SDS011;5998;42.676;23.268;2022-12-10T04:29:23;11.80;;;7.43;;
11877;SDS011;5998;42.676;23.268;2022-12-10T04:31:50;10.13;;;6.23;;
11877;SDS011;5998;42.676;23.268;2022-12-10T04:34:17;9.97;;;7.07;;
11877;SDS011;5998;42.676;23.268;2022-12-10T04:36:43;11.47;;;7.27;;
11877;SDS011;5998;42.676;23.268;2022-12-10T04:39:11;11.70;;;7.63;;
11877;SDS011;5998;42.676;23.268;2022-12-10T04:41:39;13.33;;;6.37;;
11877;SDS011;5998;42.676;23.268;2022-12-10T04:44:05;14.57;;;7.43;;
11877;SDS011;5998;42.676;23.268;2022-12-10T04:46:32;10.97;;;7.27;;
11877;SDS011;5998;42.676;23.268;2022-12-10T04:48:58;14.27;;;7.97;;
11877;SDS011;5998;42.676;23.268;2022-12-10T04:51:25;13.40;;;8.00;;
11877;SDS011;5998;42.676;23.268;2022-12-10T04:53:51;12.63;;;7.63;;
11877;SDS011;5998;42.676;23.268;2022-12-10T04:56:19;14.67;;;8.03;;
11877;SDS011;5998;42.676;23.268;2022-12-10T04:58:46;14.53;;;8.00;;
11877;SDS011;5998;42.676;23.268;2022-12-10T05:01:12;14.40;;;8.67;;
11877;SDS011;5998;42.676;23.268;2022-12-10T05:03:39;12.10;;;8.43;;
11877;SDS011;5998;42.676;23.268;2022-12-10T05:06:06;15.37;;;8.87;;
11877;SDS011;5998;42.676;23.268;2022-12-10T05:08:33;17.77;;;9.43;;
11877;SDS011;5998;42.676;23.268;2022-12-10T05:11:00;16.30;;;8.97;;
11877;SDS011;5998;42.676;23.268;2022-12-10T05:13:29;17.10;;;9.40;;
11877;SDS011;5998;42.676;23.268;2022-12-10T05:15:55;14.77;;;8.63;;
11877;SDS011;5998;42.676;23.268;2022-12-10T05:18:22;14.93;;;9.03;;
11877;SDS011;5998;42.676;23.268;2022-12-10T05:20:49;12.40;;;9.07;;
11877;SDS011;5998;42.676;23.268;2022-12-10T05:23:15;12.57;;;8.20;;
11877;SDS011;5998;42.676;23.268;2022-12-10T05:25:57;16.53;;;8.13;;
11877;SDS011;5998;42.676;23.268;2022-12-10T05:28:23;13.30;;;7.57;;
11877;SDS011;5998;42.676;23.268;2022-12-10T05:30:51;13.63;;;7.90;;
11877;SDS011;5998;42.676;23.268;2022-12-10T05:33:18;12.33;;;7.03;;
11877;SDS011;5998;42.676;23.268;2022-12-10T05:35:50;16.23;;;7.87;;
11877;SDS011;5998;42.676;23.268;2022-12-10T05:38:17;11.73;;;7.57;;
11877;SDS011;5998;42.676;23.268;2022-12-10T05:40:43;12.37;;;7.37;;
11877;SDS011;5998;42.676;23.268;2022-12-10T05:43:10;11.87;;;7.63;;
11877;SDS011;5998;42.676;23.268;2022-12-10T05:45:37;13.00;;;8.77;;
11877;SDS011;5998;42.676;23.268;2022-12-10T05:48:05;14.73;;;8.37;;
11877;SDS011;5998;42.676;23.268;2022-12-10T05:50:32;11.77;;;8.30;;
11877;SDS011;5998;42.676;23.268;2022-12-10T05:52:58;16.70;;;9.93;;
11877;SDS011;5998;42.676;23.268;2022-12-10T05:55:25;23.10;;;14.77;;
11877;SDS011;5998;42.676;23.268;2022-12-10T05:57:52;15.10;;;9.63;;
11877;SDS011;5998;42.676;23.268;2022-12-10T06:00:19;15.57;;;9.97;;
11877;SDS011;5998;42.676;23.268;2022-12-10T06:02:48;17.53;;;10.67;;
11877;SDS011;5998;42.676;23.268;2022-12-10T06:05:16;16.07;;;9.50;;
11877;SDS011;5998;42.676;23.268;2022-12-10T06:07:43;13.63;;;9.50;;
11877;SDS011;5998;42.676;23.268;2022-12-10T06:10:10;14.70;;;8.83;;
11877;SDS011;5998;42.676;23.268;2022-12-10T06:12:36;16.17;;;8.57;;
11877;SDS011;5998;42.676;23.268;2022-12-10T06:15:03;14.40;;;8.97;;
11877;SDS011;5998;42.676;23.268;2022-12-10T06:17:30;14.77;;;9.23;;
11877;SDS011;5998;42.676;23.268;2022-12-10T06:19:56;12.77;;;9.73;;
11877;SDS011;5998;42.676;23.268;2022-12-10T06:22:24;18.37;;;9.90;;
11877;SDS011;5998;42.676;23.268;2022-12-10T06:24:51;17.80;;;11.90;;
11877;SDS011;5998;42.676;23.268;2022-12-10T06:27:17;20.53;;;12.53;;
11877;SDS011;5998;42.676;23.268;2022-12-10T06:29:44;16.13;;;9.57;;
11877;SDS011;5998;42.676;23.268;2022-12-10T06:32:10;17.30;;;10.63;;
11877;SDS011;5998;42.676;23.268;2022-12-10T06:34:37;14.77;;;9.87;;
11877;SDS011;5998;42.676;23.268;2022-12-10T06:37:03;17.07;;;10.03;;
11877;SDS011;5998;42.676;23.268;2022-12-10T06:39:31;15.70;;;10.13;;
11877;SDS011;5998;42.676;23.268;2022-12-10T06:41:58;15.83;;;10.20;;
11877;SDS011;5998;42.676;23.268;2022-12-10T06:44:24;15.80;;;9.47;;
11877;SDS011;5998;42.676;23.268;2022-12-10T06:46:51;12.67;;;9.83;;
11877;SDS011;5998;42.676;23.268;2022-12-10T06:49:17;11.63;;;9.80;;
11877;SDS011;5998;42.676;23.268;2022-12-10T06:51:44;17.20;;;11.83;;
11877;SDS011;5998;42.676;23.268;2022-12-10T06:54:10;17.07;;;10.80;;
11877;SDS011;5998;42.676;23.268;2022-12-10T06:56:38;18.07;;;12.27;;
11877;SDS011;5998;42.676;23.268;2022-12-10T06:59:05;15.33;;;11.10;;
11877;SDS011;5998;42.676;23.268;2022-12-10T07:01:32;15.73;;;10.80;;
11877;SDS011;5998;42.676;23.268;2022-12-10T07:03:58;18.07;;;12.13;;
11877;SDS011;5998;42.676;23.268;2022-12-10T07:06:25;28.27;;;17.63;;
11877;SDS011;5998;42.676;23.268;2022-12-10T07:08:53;24.70;;;16.03;;
11877;SDS011;5998;42.676;23.268;2022-12-10T07:11:20;25.20;;;15.30;;
11877;SDS011;5998;42.676;23.268;2022-12-10T07:13:48;18.27;;;11.53;;
11877;SDS011;5998;42.676;23.268;2022-12-10T07:16:15;20.60;;;11.30;;
11877;SDS011;5998;42.676;23.268;2022-12-10T07:18:42;13.93;;;9.63;;
11877;SDS011;5998;42.676;23.268;2022-12-10T07:21:15;21.80;;;12.43;;
11877;SDS011;5998;42.676;23.268;2022-12-10T07:23:42;15.77;;;10.87;;
11877;SDS011;5998;42.676;23.268;2022-12-10T07:26:08;21.13;;;11.77;;
11877;SDS011;5998;42.676;23.268;2022-12-10T07:28:34;17.33;;;11.67;;
11877;SDS011;5998;42.676;23.268;2022-12-10T07:31:02;16.20;;;10.17;;
11877;SDS011;5998;42.676;23.268;2022-12-10T07:33:29;18.07;;;10.80;;
11877;SDS011;5998;42.676;23.268;2022-12-10T07:35:55;15.00;;;9.40;;
11877;SDS011;5998;42.676;23.268;2022-12-10T07:38:22;15.80;;;10.37;;
11877;SDS011;5998;42.676;23.268;2022-12-10T07:40:49;16.47;;;9.97;;
11877;SDS011;5998;42.676;23.268;2022-12-10T07:43:15;12.60;;;10.03;;
11877;SDS011;5998;42.676;23.268;2022-12-10T07:45:42;18.60;;;10.67;;
11877;SDS011;5998;42.676;23.268;2022-12-10T07:48:10;16.70;;;10.87;;
11877;SDS011;5998;42.676;23.268;2022-12-10T07:50:36;14.43;;;11.30;;
11877;SDS011;5998;42.676;23.268;2022-12-10T07:53:03;18.13;;;12.63;;
11877;SDS011;5998;42.676;23.268;2022-12-10T07:55:29;18.20;;;12.57;;
11877;SDS011;5998;42.676;23.268;2022-12-10T07:57:55;31.23;;;21.67;;
11877;SDS011;5998;42.676;23.268;2022-12-10T08:00:22;18.30;;;11.40;;
11877;SDS011;5998;42.676;23.268;2022-12-10T08:02:48;13.67;;;11.90;;
11877;SDS011;5998;42.676;23.268;2022-12-10T08:05:16;17.20;;;10.43;;
11877;SDS011;5998;42.676;23.268;2022-12-10T08:07:43;13.23;;;9.87;;
11877;SDS011;5998;42.676;23.268;2022-12-10T08:10:09;14.17;;;10.30;;
11877;SDS011;5998;42.676;23.268;2022-12-10T08:12:36;16.93;;;10.57;;
11877;SDS011;5998;42.676;23.268;2022-12-10T08:15:02;15.47;;;9.47;;
11877;SDS011;5998;42.676;23.268;2022-12-10T08:17:29;19.77;;;9.73;;
11877;SDS011;5998;42.676;23.268;2022-12-10T08:19:55;16.47;;;9.50;;
11877;SDS011;5998;42.676;23.268;2022-12-10T08:22:23;12.53;;;9.00;;
11877;SDS011;5998;42.676;23.268;2022-12-10T08:24:49;13.83;;;9.70;;
11877;SDS011;5998;42.676;23.268;2022-12-10T08:27:16;15.10;;;9.03;;
11877;SDS011;5998;42.676;23.268;2022-12-10T08:29:42;13.57;;;8.70;;
11877;SDS011;5998;42.676;23.268;2022-12-10T08:32:09;14.20;;;8.57;;
11877;SDS011;5998;42.676;23.268;2022-12-10T08:34:35;43.23;;;31.97;;
11877;SDS011;5998;42.676;23.268;2022-12-10T08:37:02;13.67;;;8.40;;
11877;SDS011;5998;42.676;23.268;2022-12-10T08:39:30;14.27;;;8.60;;
11877;SDS011;5998;42.676;23.268;2022-12-10T08:41:56;16.87;;;9.37;;
11877;SDS011;5998;42.676;23.268;2022-12-10T08:44:23;18.27;;;9.70;;
11877;SDS011;5998;42.676;23.268;2022-12-10T08:46:49;17.10;;;9.43;;
11877;SDS011;5998;42.676;23.268;2022-12-10T08:49:16;17.87;;;9.73;;
11877;SDS011;5998;42.676;23.268;2022-12-10T08:51:42;17.60;;;10.10;;
11877;SDS011;5998;42.676;23.268;2022-12-10T08:54:09;17.40;;;11.00;;
11877;SDS011;5998;42.676;23.268;2022-12-10T08:56:36;16.47;;;11.10;;
11877;SDS011;5998;42.676;23.268;2022-12-10T08:59:04;15.83;;;11.50;;
11877;SDS011;5998;42.676;23.268;2022-12-10T09:01:30;15.17;;;12.17;;
11877;SDS011;5998;42.676;23.268;2022-12-10T09:03:57;18.00;;;13.03;;
11877;SDS011;5998;42.676;23.268;2022-12-10T09:06:24;15.17;;;12.30;;
11877;SDS011;5998;42.676;23.268;2022-12-10T09:08:50;17.23;;;12.60;;
11877;SDS011;5998;42.676;23.268;2022-12-10T09:11:18;15.00;;;11.93;;
11877;SDS011;5998;42.676;23.268;2022-12-10T09:13:46;17.60;;;11.80;;
11877;SDS011;5998;42.676;23.268;2022-12-10T09:16:12;16.17;;;11.33;;
11877;SDS011;5998;42.676;23.268;2022-12-10T09:18:39;16.20;;;10.10;;
11877;SDS011;5998;42.676;23.268;2022-12-10T09:21:06;16.27;;;12.23;;
11877;SDS011;5998;42.676;23.268;2022-12-10T09:23:33;17.50;;;11.60;;
11877;SDS011;5998;42.676;23.268;2022-12-10T09:25:59;14.37;;;10.90;;
11877;SDS011;5998;42.676;23.268;2022-12-10T09:28:25;12.93;;;7.93;;
11877;SDS011;5998;42.676;23.268;2022-12-10T09:30:57;14.60;;;9.33;;
11877;SDS011;5998;42.676;23.268;2022-12-10T09:33:23;16.17;;;9.97;;
11877;SDS011;5998;42.676;23.268;2022-12-10T09:35:50;15.10;;;9.83;;
11877;SDS011;5998;42.676;23.268;2022-12-10T09:38:16;17.30;;;11.00;;
11877;SDS011;5998;42.676;23.268;2022-12-10T09:40:44;15.73;;;9.70;;
11877;SDS011;5998;42.676;23.268;2022-12-10T09:43:13;14.50;;;9.87;;
11877;SDS011;5998;42.676;23.268;2022-12-10T09:45:44;15.13;;;9.97;;
11877;SDS011;5998;42.676;23.268;2022-12-10T09:48:16;14.37;;;10.13;;
11877;SDS011;5998;42.676;23.268;2022-12-10T09:50:48;14.20;;;9.93;;
11877;SDS011;5998;42.676;23.268;2022-12-10T09:53:17;15.10;;;9.67;;
11877;SDS011;5998;42.676;23.268;2022-12-10T09:55:46;14.97;;;9.77;;
11877;SDS011;5998;42.676;23.268;2022-12-10T09:58:13;13.80;;;9.50;;
11877;SDS011;5998;42.676;23.268;2022-12-10T10:00:41;11.47;;;9.23;;
11877;SDS011;5998;42.676;23.268;2022-12-10T10:03:09;16.23;;;9.80;;
11877;SDS011;5998;42.676;23.268;2022-12-10T10:05:40;13.73;;;9.87;;
11877;SDS011;5998;42.676;23.268;2022-12-10T10:08:11;17.57;;;9.53;;
11877;SDS011;5998;42.676;23.268;2022-12-10T10:10:39;14.80;;;9.83;;
11877;SDS011;5998;42.676;23.268;2022-12-10T10:13:11;13.70;;;9.73;;
11877;SDS011;5998;42.676;23.268;2022-12-10T10:15:40;13.40;;;9.07;;
11877;SDS011;5998;42.676;23.268;2022-12-10T10:18:09;12.83;;;9.50;;
11877;SDS011;5998;42.676;23.268;2022-12-10T10:20:37;11.13;;;9.13;;
11877;SDS011;5998;42.676;23.268;2022-12-10T10:23:05;14.73;;;9.83;;
11877;SDS011;5998;42.676;23.268;2022-12-10T10:25:31;14.87;;;9.30;;
11877;SDS011;5998;42.676;23.268;2022-12-10T10:27:58;13.47;;;8.40;;
11877;SDS011;5998;42.676;23.268;2022-12-10T10:30:25;13.37;;;7.90;;
11877;SDS011;5998;42.676;23.268;2022-12-10T10:32:54;14.20;;;8.47;;
11877;SDS011;5998;42.676;23.268;2022-12-10T10:35:22;13.83;;;8.70;;
11877;SDS011;5998;42.676;23.268;2022-12-10T10:37:49;31.90;;;22.07;;
11877;SDS011;5998;42.676;23.268;2022-12-10T10:40:22;13.27;;;8.97;;
11877;SDS011;5998;42.676;23.268;2022-12-10T10:42:51;13.30;;;9.37;;
11877;SDS011;5998;42.676;23.268;2022-12-10T10:45:32;17.27;;;10.40;;
11877;SDS011;5998;42.676;23.268;2022-12-10T10:48:03;11.77;;;8.63;;
11877;SDS011;5998;42.676;23.268;2022-12-10T10:50:29;11.90;;;7.83;;
11877;SDS011;5998;42.676;23.268;2022-12-10T10:52:56;11.30;;;7.97;;
11877;SDS011;5998;42.676;23.268;2022-12-10T10:55:31;15.27;;;8.60;;
11877;SDS011;5998;42.676;23.268;2022-12-10T10:58:00;12.17;;;7.37;;
11877;SDS011;5998;42.676;23.268;2022-12-10T11:00:27;10.07;;;7.27;;
11877;SDS011;5998;42.676;23.268;2022-12-10T11:02:53;8.57;;;7.53;;
11877;SDS011;5998;42.676;23.268;2022-12-10T11:05:20;9.43;;;6.37;;
11877;SDS011;5998;42.676;23.268;2022-12-10T11:07:49;10.97;;;7.03;;
11877;SDS011;5998;42.676;23.268;2022-12-10T11:10:23;13.03;;;7.67;;
11877;SDS011;5998;42.676;23.268;2022-12-10T11:12:55;10.10;;;7.00;;
11877;SDS011;5998;42.676;23.268;2022-12-10T11:15:29;13.00;;;7.50;;
11877;SDS011;5998;42.676;23.268;2022-12-10T11:17:56;12.60;;;7.73;;
11877;SDS011;5998;42.676;23.268;2022-12-10T11:20:23;10.83;;;6.63;;
11877;SDS011;5998;42.676;23.268;2022-12-10T11:22:52;9.83;;;6.30;;
11877;SDS011;5998;42.676;23.268;2022-12-10T11:25:19;12.33;;;6.60;;
11877;SDS011;5998;42.676;23.268;2022-12-10T11:27:51;7.70;;;5.40;;
11877;SDS011;5998;42.676;23.268;2022-12-10T11:30:21;7.40;;;4.43;;
11877;SDS011;5998;42.676;23.268;2022-12-10T11:33:00;9.73;;;5.47;;
11877;SDS011;5998;42.676;23.268;2022-12-10T11:35:36;8.77;;;5.37;;
11877;SDS011;5998;42.676;23.268;2022-12-10T11:38:07;8.17;;;4.43;;
11877;SDS011;5998;42.676;23.268;2022-12-10T11:40:38;15.83;;;6.90;;
11877;SDS011;5998;42.676;23.268;2022-12-10T11:43:12;8.00;;;4.57;;
11877;SDS011;5998;42.676;23.268;2022-12-10T11:45:44;14.60;;;5.83;;
11877;SDS011;5998;42.676;23.268;2022-12-10T11:48:16;11.20;;;7.20;;
11877;SDS011;5998;42.676;23.268;2022-12-10T11:50:46;18.13;;;6.60;;
11877;SDS011;5998;42.676;23.268;2022-12-10T11:53:26;12.50;;;7.50;;
11877;SDS011;5998;42.676;23.268;2022-12-10T11:55:59;11.77;;;8.00;;
11877;SDS011;5998;42.676;23.268;2022-12-10T11:58:33;8.33;;;6.07;;
11877;SDS011;5998;42.676;23.268;2022-12-10T12:01:06;13.13;;;7.80;;
11877;SDS011;5998;42.676;23.268;2022-12-10T12:03:40;9.83;;;6.13;;
11877;SDS011;5998;42.676;23.268;2022-12-10T12:06:23;18.37;;;7.53;;
11877;SDS011;5998;42.676;23.268;2022-12-10T12:08:55;10.57;;;6.47;;
11877;SDS011;5998;42.676;23.268;2022-12-10T12:11:30;12.83;;;6.20;;
11877;SDS011;5998;42.676;23.268;2022-12-10T12:14:00;8.60;;;4.83;;
11877;SDS011;5998;42.676;23.268;2022-12-10T12:16:32;9.90;;;5.27;;
11877;SDS011;5998;42.676;23.268;2022-12-10T12:19:02;10.23;;;5.93;;
11877;SDS011;5998;42.676;23.268;2022-12-10T12:21:29;14.33;;;6.70;;
11877;SDS011;5998;42.676;23.268;2022-12-10T12:23:56;13.43;;;6.73;;
11877;SDS011;5998;42.676;23.268;2022-12-10T12:26:26;7.37;;;6.17;;
11877;SDS011;5998;42.676;23.268;2022-12-10T12:28:55;15.30;;;7.13;;
11877;SDS011;5998;42.676;23.268;2022-12-10T12:31:25;18.40;;;7.90;;
11877;SDS011;5998;42.676;23.268;2022-12-10T12:33:58;13.00;;;7.43;;
11877;SDS011;5998;42.676;23.268;2022-12-10T12:36:26;9.90;;;7.20;;
11877;SDS011;5998;42.676;23.268;2022-12-10T12:38:55;11.93;;;7.10;;
11877;SDS011;5998;42.676;23.268;2022-12-10T12:41:26;11.33;;;7.10;;
11877;SDS011;5998;42.676;23.268;2022-12-10T12:43:55;10.10;;;7.10;;
11877;SDS011;5998;42.676;23.268;2022-12-10T12:46:26;10.17;;;8.10;;
11877;SDS011;5998;42.676;23.268;2022-12-10T12:48:54;24.60;;;9.20;;
11877;SDS011;5998;42.676;23.268;2022-12-10T12:51:24;17.63;;;8.90;;
11877;SDS011;5998;42.676;23.268;2022-12-10T12:53:53;14.60;;;8.43;;
11877;SDS011;5998;42.676;23.268;2022-12-10T12:56:21;16.53;;;8.53;;
11877;SDS011;5998;42.676;23.268;2022-12-10T12:58:53;13.87;;;8.20;;
11877;SDS011;5998;42.676;23.268;2022-12-10T13:01:23;12.17;;;8.17;;
11877;SDS011;5998;42.676;23.268;2022-12-10T13:03:52;9.87;;;7.37;;
11877;SDS011;5998;42.676;23.268;2022-12-10T13:06:21;15.03;;;7.60;;
11877;SDS011;5998;42.676;23.268;2022-12-10T13:08:50;15.00;;;7.77;;
11877;SDS011;5998;42.676;23.268;2022-12-10T13:14:12;12.10;;;7.77;;
11877;SDS011;5998;42.676;23.268;2022-12-10T13:16:46;14.37;;;8.07;;
11877;SDS011;5998;42.676;23.268;2022-12-10T13:19:15;13.07;;;7.70;;
11877;SDS011;5998;42.676;23.268;2022-12-10T13:21:55;17.30;;;8.70;;
11877;SDS011;5998;42.676;23.268;2022-12-10T13:24:43;15.47;;;8.80;;
11877;SDS011;5998;42.676;23.268;2022-12-10T13:27:14;12.20;;;8.33;;
11877;SDS011;5998;42.676;23.268;2022-12-10T13:29:43;19.20;;;10.30;;
11877;SDS011;5998;42.676;23.268;2022-12-10T13:32:13;14.53;;;8.63;;
11877;SDS011;5998;42.676;23.268;2022-12-10T13:34:40;22.17;;;13.57;;
11877;SDS011;5998;42.676;23.268;2022-12-10T13:40:01;16.27;;;9.07;;
11877;SDS011;5998;42.676;23.268;2022-12-10T13:42:33;13.83;;;9.10;;
11877;SDS011;5998;42.676;23.268;2022-12-10T13:45:27;14.10;;;9.83;;
11877;SDS011;5998;42.676;23.268;2022-12-10T13:47:55;16.17;;;9.60;;
11877;SDS011;5998;42.676;23.268;2022-12-10T13:50:35;18.93;;;10.23;;
11877;SDS011;5998;42.676;23.268;2022-12-10T13:53:03;19.13;;;9.70;;
11877;SDS011;5998;42.676;23.268;2022-12-10T13:55:36;14.83;;;10.00;;
11877;SDS011;5998;42.676;23.268;2022-12-10T13:58:15;15.80;;;10.20;;
11877;SDS011;5998;42.676;23.268;2022-12-10T14:00:49;14.60;;;9.37;;
11877;SDS011;5998;42.676;23.268;2022-12-10T14:03:26;14.37;;;9.40;;
11877;SDS011;5998;42.676;23.268;2022-12-10T14:06:02;12.30;;;8.70;;
11877;SDS011;5998;42.676;23.268;2022-12-10T14:08:34;16.63;;;9.37;;
11877;SDS011;5998;42.676;23.268;2022-12-10T14:11:04;13.70;;;8.93;;
11877;SDS011;5998;42.676;23.268;2022-12-10T14:13:33;16.93;;;9.13;;
11877;SDS011;5998;42.676;23.268;2022-12-10T14:16:01;14.37;;;9.73;;
11877;SDS011;5998;42.676;23.268;2022-12-10T14:18:30;22.57;;;12.27;;
11877;SDS011;5998;42.676;23.268;2022-12-10T14:20:56;16.93;;;11.27;;
11877;SDS011;5998;42.676;23.268;2022-12-10T14:23:25;23.93;;;12.83;;
11877;SDS011;5998;42.676;23.268;2022-12-10T14:26:05;25.07;;;14.50;;
11877;SDS011;5998;42.676;23.268;2022-12-10T14:28:32;30.00;;;15.30;;
11877;SDS011;5998;42.676;23.268;2022-12-10T14:31:05;23.63;;;14.13;;
11877;SDS011;5998;42.676;23.268;2022-12-10T14:33:32;28.03;;;18.33;;
11877;SDS011;5998;42.676;23.268;2022-12-10T14:35:58;41.07;;;18.57;;
11877;SDS011;5998;42.676;23.268;2022-12-10T14:38:27;32.20;;;14.53;;
11877;SDS011;5998;42.676;23.268;2022-12-10T14:40:55;35.73;;;17.07;;
11877;SDS011;5998;42.676;23.268;2022-12-10T14:43:24;40.80;;;22.73;;
11877;SDS011;5998;42.676;23.268;2022-12-10T14:45:57;29.77;;;17.77;;
11877;SDS011;5998;42.676;23.268;2022-12-10T14:48:24;28.70;;;17.90;;
11877;SDS011;5998;42.676;23.268;2022-12-10T14:50:51;20.90;;;15.37;;